createdAt,value
2023-01-23T00:01:09.356Z,25.83
2023-01-23T00:03:36.495Z,25.45
2023-01-23T00:06:07.722Z,24.30
2023-01-23T00:08:35.721Z,25.15
2023-01-23T00:11:10.620Z,26.67
2023-01-23T00:13:37.685Z,27.27
2023-01-23T00:16:09.902Z,25.15
2023-01-23T00:18:36.769Z,25.25
2023-01-23T00:21:05.755Z,18.05
2023-01-23T00:23:33.319Z,23.35
2023-01-23T00:26:08.164Z,22.67
2023-01-23T00:28:35.200Z,21.20
2023-01-23T00:31:07.254Z,21.38
2023-01-23T00:33:34.072Z,34.05
2023-01-23T00:36:01.394Z,23.80
2023-01-23T00:38:28.095Z,27.48
2023-01-23T00:40:56.323Z,20.95
2023-01-23T00:43:24.289Z,21.98
2023-01-23T00:45:51.811Z,26.55
2023-01-23T00:48:18.612Z,19.25
2023-01-23T00:50:45.606Z,22.38
2023-01-23T00:53:13.154Z,21.40
2023-01-23T00:55:40.695Z,26.88
2023-01-23T00:58:08.414Z,21.63
2023-01-23T01:00:37.435Z,24.73
2023-01-23T01:03:05.289Z,24.83
2023-01-23T01:05:32.418Z,27.10
2023-01-23T01:07:59.578Z,22.38
2023-01-23T01:10:29.473Z,22.92
2023-01-23T01:12:58.184Z,16.58
2023-01-23T01:15:26.216Z,26.00
2023-01-23T01:17:58.242Z,17.00
2023-01-23T01:20:27.494Z,16.27
2023-01-23T01:22:57.144Z,25.95
2023-01-23T01:25:24.090Z,26.05
2023-01-23T01:27:50.860Z,25.30
2023-01-23T01:30:18.944Z,16.77
2023-01-23T01:32:47.415Z,27.88
2023-01-23T01:35:14.192Z,22.25
2023-01-23T01:37:41.843Z,19.17
2023-01-23T01:40:13.075Z,24.30
2023-01-23T01:42:45.045Z,17.00
2023-01-23T01:45:49.858Z,22.25
2023-01-23T01:48:18.667Z,18.75
2023-01-23T01:50:45.904Z,23.15
2023-01-23T01:53:13.378Z,25.63
2023-01-23T01:55:40.460Z,15.50
2023-01-23T01:58:08.637Z,16.75
2023-01-23T02:00:36.058Z,20.77
2023-01-23T02:03:03.663Z,19.17
2023-01-23T02:05:47.468Z,18.83
2023-01-23T02:08:35.823Z,18.13
2023-01-23T02:11:03.464Z,21.02
2023-01-23T02:13:38.781Z,20.48
2023-01-23T02:16:23.283Z,19.30
2023-01-23T02:18:53.854Z,21.05
2023-01-23T02:21:25.506Z,27.40
2023-01-23T02:24:22.925Z,23.02
2023-01-23T02:26:52.514Z,20.27
2023-01-23T02:29:20.485Z,18.27
2023-01-23T02:31:53.947Z,19.63
2023-01-23T02:34:22.754Z,22.80
2023-01-23T02:36:50.658Z,29.23
2023-01-23T02:39:20.391Z,23.55
2023-01-23T02:41:54.568Z,19.33
2023-01-23T02:44:33.990Z,19.63
2023-01-23T02:47:12.402Z,19.88
2023-01-23T02:49:40.677Z,28.08
2023-01-23T02:52:09.844Z,27.77
2023-01-23T02:54:37.295Z,25.92
2023-01-23T02:57:04.343Z,23.73
2023-01-23T02:59:49.821Z,24.70
2023-01-23T03:02:17.236Z,26.25
2023-01-23T03:04:43.985Z,23.08
2023-01-23T03:07:10.749Z,28.95
2023-01-23T03:09:37.945Z,23.63
2023-01-23T03:12:04.726Z,26.33
2023-01-23T03:14:32.351Z,24.73
2023-01-23T03:16:59.137Z,24.73
2023-01-23T03:19:32.829Z,25.92
2023-01-23T03:21:59.790Z,26.08
2023-01-23T03:24:26.633Z,30.13
2023-01-23T03:26:53.526Z,24.15
2023-01-23T03:29:44.638Z,26.77
2023-01-23T03:32:14.999Z,26.25
2023-01-23T03:34:43.003Z,23.98
2023-01-23T03:37:11.438Z,25.27
2023-01-23T03:39:57.773Z,27.00
2023-01-23T03:42:25.605Z,27.35
2023-01-23T03:44:55.565Z,28.95
2023-01-23T03:47:26.401Z,28.25
2023-01-23T03:49:55.057Z,21.98
2023-01-23T03:52:22.209Z,20.45
2023-01-23T03:54:49.037Z,26.95
2023-01-23T03:57:15.847Z,25.83
2023-01-23T04:00:10.401Z,27.38
2023-01-23T04:02:49.587Z,20.58
2023-01-23T04:05:17.322Z,23.73
2023-01-23T04:07:44.075Z,21.25
2023-01-23T04:10:13.151Z,17.33
2023-01-23T04:12:43.102Z,21.17
2023-01-23T04:15:10.995Z,16.65
2023-01-23T04:17:40.626Z,21.20
2023-01-23T04:20:09.792Z,18.98
2023-01-23T04:22:36.478Z,27.83
2023-01-23T04:25:03.326Z,20.35
2023-01-23T04:27:32.043Z,26.65
2023-01-23T04:29:59.293Z,23.65
2023-01-23T04:32:26.133Z,22.00
2023-01-23T04:34:53.042Z,25.52
2023-01-23T04:37:19.800Z,23.20
2023-01-23T04:39:46.698Z,26.95
2023-01-23T04:42:13.981Z,14.13
2023-01-23T04:45:10.650Z,27.35
2023-01-23T04:47:59.798Z,26.92
2023-01-23T04:50:26.496Z,22.10
2023-01-23T04:52:53.204Z,21.15
2023-01-23T04:55:19.990Z,25.02
2023-01-23T04:57:46.790Z,26.55
2023-01-23T05:00:21.834Z,23.27
2023-01-23T05:02:50.110Z,23.15
2023-01-23T05:05:20.872Z,28.58
2023-01-23T05:07:50.929Z,25.27
2023-01-23T05:10:18.572Z,18.90
2023-01-23T05:12:46.306Z,20.48
2023-01-23T05:15:13.420Z,26.83
2023-01-23T05:17:41.876Z,26.52
2023-01-23T05:20:10.727Z,22.83
2023-01-23T05:22:51.985Z,25.35
2023-01-23T05:25:26.125Z,21.38
2023-01-23T05:27:55.175Z,20.80
2023-01-23T05:30:23.280Z,20.30
2023-01-23T05:32:53.555Z,17.02
2023-01-23T05:35:22.055Z,22.08
2023-01-23T05:37:50.564Z,27.35
2023-01-23T05:40:21.806Z,20.73
2023-01-23T05:43:07.081Z,18.90
2023-01-23T05:45:49.239Z,22.67
2023-01-23T05:48:28.482Z,23.00
2023-01-23T05:50:55.567Z,24.58
2023-01-23T05:53:22.361Z,17.98
2023-01-23T05:55:49.099Z,22.52
2023-01-23T05:58:16.336Z,22.90
2023-01-23T06:01:14.967Z,23.75
2023-01-23T06:04:00.830Z,20.50
2023-01-23T06:06:38.429Z,20.55
2023-01-23T06:09:05.248Z,20.75
2023-01-23T06:11:32.173Z,21.98
2023-01-23T06:13:59.177Z,21.40
2023-01-23T06:16:26.176Z,20.10
2023-01-23T06:18:53.049Z,24.30
2023-01-23T06:21:20.061Z,21.58
2023-01-23T06:23:47.877Z,22.13
2023-01-23T06:26:15.368Z,24.23
2023-01-23T06:28:42.075Z,26.10
2023-01-23T06:31:10.355Z,27.10
2023-01-23T06:33:51.642Z,25.60
2023-01-23T06:36:23.321Z,24.95
2023-01-23T06:38:53.258Z,21.63
2023-01-23T06:41:25.846Z,23.80
2023-01-23T06:44:01.610Z,30.10
2023-01-23T06:46:29.059Z,23.83
2023-01-23T06:48:56.177Z,28.70
2023-01-23T06:51:23.605Z,29.63
2023-01-23T06:53:50.582Z,28.10
2023-01-23T06:56:18.155Z,17.85
2023-01-23T06:58:46.268Z,34.25
2023-01-23T07:01:33.677Z,32.47
2023-01-23T07:04:17.413Z,32.80
2023-01-23T07:06:45.006Z,36.08
2023-01-23T07:09:14.795Z,46.63
2023-01-23T07:11:45.545Z,33.05
2023-01-23T07:14:12.402Z,39.85
2023-01-23T07:16:46.157Z,31.77
2023-01-23T07:19:13.296Z,48.08
2023-01-23T07:21:41.308Z,41.13
2023-01-23T07:24:08.049Z,41.00
2023-01-23T07:26:34.761Z,36.63
2023-01-23T07:29:01.544Z,42.50
2023-01-23T07:31:28.300Z,37.30
2023-01-23T07:33:55.024Z,43.42
2023-01-23T07:36:21.751Z,49.60
2023-01-23T07:38:48.481Z,40.97
2023-01-23T07:41:15.200Z,34.00
2023-01-23T07:43:41.938Z,44.70
2023-01-23T07:46:09.708Z,43.45
2023-01-23T07:48:37.782Z,43.40
2023-01-23T07:51:05.297Z,39.10
2023-01-23T07:53:32.594Z,35.88
2023-01-23T07:55:59.560Z,55.30
2023-01-23T07:58:26.246Z,87.68
2023-01-23T08:00:53.265Z,52.25
2023-01-23T08:03:21.016Z,54.47
2023-01-23T08:05:50.939Z,52.28
2023-01-23T08:08:17.720Z,65.63
2023-01-23T08:10:44.440Z,42.33
2023-01-23T08:13:11.861Z,39.30
2023-01-23T08:15:38.931Z,48.08
2023-01-23T08:18:05.791Z,40.85
2023-01-23T08:20:32.499Z,19.67
2023-01-23T08:23:00.719Z,35.20
2023-01-23T08:25:27.792Z,41.92
2023-01-23T08:27:54.493Z,42.75
2023-01-23T08:30:21.813Z,30.80
2023-01-23T08:32:48.641Z,29.30
2023-01-23T08:35:15.714Z,29.98
2023-01-23T08:37:42.513Z,37.70
2023-01-23T08:40:09.833Z,16.58
2023-01-23T08:42:36.528Z,33.72
2023-01-23T08:45:03.743Z,36.25
2023-01-23T08:47:36.301Z,35.50
2023-01-23T08:50:04.516Z,45.45
2023-01-23T08:52:31.612Z,22.23
2023-01-23T08:54:58.386Z,35.85
2023-01-23T08:57:25.138Z,34.53
2023-01-23T08:59:51.927Z,41.20
2023-01-23T09:02:22.133Z,32.63
2023-01-23T09:04:49.249Z,36.83
2023-01-23T09:07:15.959Z,33.28
2023-01-23T09:09:42.742Z,30.77
2023-01-23T09:12:09.538Z,35.78
2023-01-23T09:14:36.356Z,34.80
2023-01-23T09:17:03.074Z,39.25
2023-01-23T09:19:32.043Z,32.50
2023-01-23T09:21:58.785Z,27.00
2023-01-23T09:24:25.513Z,35.17
2023-01-23T09:26:52.232Z,37.03
2023-01-23T09:29:18.916Z,35.58
2023-01-23T09:31:45.605Z,31.80
2023-01-23T09:34:12.398Z,38.60
2023-01-23T09:36:43.405Z,33.33
2023-01-23T09:39:11.070Z,34.25
2023-01-23T09:41:39.558Z,32.25
2023-01-23T09:44:12.678Z,33.28
2023-01-23T09:46:53.127Z,33.78
2023-01-23T09:49:49.671Z,20.98
2023-01-23T09:52:20.528Z,34.08
2023-01-23T09:54:49.702Z,31.48
2023-01-23T09:57:42.365Z,29.75
2023-01-23T10:00:25.395Z,27.90
2023-01-23T10:02:53.453Z,21.70
2023-01-23T10:05:29.921Z,36.00
2023-01-23T10:10:35.197Z,27.02
2023-01-23T10:13:09.179Z,30.42
2023-01-23T10:15:55.140Z,19.58
2023-01-23T10:18:31.185Z,24.40
2023-01-23T10:21:22.684Z,31.42
2023-01-23T10:24:10.930Z,23.50
2023-01-23T10:26:42.584Z,18.98
2023-01-23T10:29:28.821Z,23.05
2023-01-23T10:31:58.838Z,34.53
2023-01-23T10:34:48.400Z,33.15
2023-01-23T10:37:42.964Z,39.45
2023-01-23T10:40:16.229Z,35.85
2023-01-23T10:42:43.271Z,30.65
2023-01-23T10:45:18.857Z,38.42
2023-01-23T10:47:54.697Z,27.13
2023-01-23T10:50:39.153Z,29.02
2023-01-23T10:53:08.480Z,31.35
2023-01-23T10:55:35.313Z,22.80
2023-01-23T10:58:03.141Z,32.53
2023-01-23T11:00:39.655Z,31.85
2023-01-23T11:03:26.990Z,24.15
2023-01-23T11:06:00.741Z,26.48
2023-01-23T11:08:51.854Z,24.42
2023-01-23T11:11:30.469Z,32.90
2023-01-23T11:14:14.028Z,35.40
2023-01-23T11:16:41.013Z,29.50
2023-01-23T11:19:07.657Z,26.63
2023-01-23T11:21:37.035Z,31.85
2023-01-23T11:24:20.469Z,27.33
2023-01-23T11:26:59.641Z,36.45
2023-01-23T11:29:28.316Z,48.65
2023-01-23T11:32:10.507Z,125.18
2023-01-23T11:34:42.876Z,34.60
2023-01-23T11:37:15.972Z,38.45
2023-01-23T11:39:48.798Z,35.38
2023-01-23T11:42:17.270Z,28.52
2023-01-23T11:44:46.836Z,21.92
2023-01-23T11:47:59.111Z,32.85
2023-01-23T11:50:49.908Z,33.05
2023-01-23T11:53:41.904Z,27.73
2023-01-23T11:56:36.933Z,30.95
2023-01-23T11:59:14.428Z,34.13
2023-01-23T12:02:06.154Z,31.33
2023-01-23T12:04:53.173Z,28.10
2023-01-23T12:07:27.691Z,30.23
2023-01-23T12:09:59.754Z,28.65
2023-01-23T12:12:51.485Z,32.45
2023-01-23T12:15:34.407Z,23.55
2023-01-23T12:18:15.492Z,33.78
2023-01-23T12:20:54.100Z,32.17
2023-01-23T12:23:46.543Z,27.55
2023-01-23T12:26:22.531Z,22.58
2023-01-23T12:29:16.066Z,24.80
2023-01-23T12:31:55.445Z,32.47
2023-01-23T12:34:22.657Z,34.97
2023-01-23T12:37:29.916Z,32.47
2023-01-23T12:39:57.815Z,30.17
2023-01-23T12:42:37.153Z,26.20
2023-01-23T12:45:11.397Z,30.48
2023-01-23T12:48:02.070Z,28.83
2023-01-23T12:50:46.050Z,27.05
2023-01-23T12:53:23.203Z,29.80
2023-01-23T12:56:02.550Z,20.33
2023-01-23T12:58:34.196Z,16.55
2023-01-23T13:01:20.496Z,28.10
2023-01-23T13:04:12.526Z,30.38
2023-01-23T13:07:17.162Z,25.50
2023-01-23T13:10:49.235Z,32.22
2023-01-23T13:13:18.422Z,28.40
2023-01-23T13:16:02.788Z,21.80
2023-01-23T13:18:30.332Z,31.10
2023-01-23T13:21:18.072Z,23.45
2023-01-23T13:23:45.529Z,28.73
2023-01-23T13:26:25.181Z,24.90
2023-01-23T13:28:57.346Z,32.85
2023-01-23T13:31:26.614Z,27.25
2023-01-23T13:34:06.756Z,25.35
2023-01-23T13:36:40.808Z,33.63
2023-01-23T13:39:16.723Z,29.50
2023-01-23T13:41:45.787Z,27.73
2023-01-23T13:44:40.233Z,58.00
2023-01-23T14:22:47.306Z,27.63
2023-01-23T14:25:18.369Z,25.05
2023-01-23T14:27:53.240Z,24.60
2023-01-23T14:30:26.399Z,21.90
2023-01-23T14:32:53.546Z,22.30
2023-01-23T14:35:29.213Z,27.75
2023-01-23T14:37:59.164Z,19.48
2023-01-23T14:40:33.238Z,23.50
2023-01-23T14:43:07.833Z,14.23
2023-01-23T14:45:36.852Z,28.58
2023-01-23T14:48:07.560Z,26.10
2023-01-23T14:50:35.617Z,24.80
2023-01-23T14:53:05.446Z,31.10
2023-01-23T14:55:36.369Z,20.23
2023-01-23T14:58:04.363Z,30.35
2023-01-23T15:00:32.056Z,30.00
2023-01-23T15:02:58.831Z,21.25
2023-01-23T15:05:27.601Z,37.33
2023-01-23T15:07:58.474Z,25.40
2023-01-23T15:10:32.355Z,26.23
2023-01-23T15:13:05.809Z,30.83
2023-01-23T15:15:34.430Z,26.48
2023-01-23T15:18:05.833Z,21.10
2023-01-23T15:20:42.855Z,27.35
2023-01-23T15:23:34.942Z,28.83
2023-01-23T15:26:12.679Z,25.95
2023-01-23T15:28:53.990Z,27.08
2023-01-23T15:31:57.303Z,14.13
2023-01-23T15:34:28.398Z,27.40
2023-01-23T15:37:05.414Z,19.80
2023-01-23T15:40:04.703Z,14.32
2023-01-23T15:42:34.306Z,23.35
2023-01-23T15:45:02.597Z,16.30
2023-01-23T15:47:34.644Z,21.08
2023-01-23T15:50:03.123Z,27.50
2023-01-23T15:52:52.188Z,25.20
2023-01-23T15:55:21.153Z,28.00
2023-01-23T15:57:48.967Z,28.02
2023-01-23T16:00:24.737Z,25.75
2023-01-23T16:02:56.873Z,25.10
2023-01-23T16:05:26.894Z,24.40
2023-01-23T16:07:55.503Z,32.10
2023-01-23T16:10:25.899Z,26.77
2023-01-23T16:12:55.811Z,17.13
2023-01-23T16:15:28.693Z,28.35
2023-01-23T16:17:57.433Z,25.20
2023-01-23T16:20:33.645Z,21.58
2023-01-23T16:23:15.115Z,26.27
2023-01-23T16:25:46.885Z,34.25
2023-01-23T16:28:15.800Z,22.48
2023-01-23T16:30:43.243Z,41.92
2023-01-23T16:33:11.529Z,39.05
2023-01-23T16:35:46.988Z,27.60
2023-01-23T16:38:35.536Z,36.80
2023-01-23T16:41:33.907Z,39.38
2023-01-23T16:44:29.623Z,33.75
2023-01-23T16:46:56.808Z,46.15
2023-01-23T16:49:51.314Z,33.72
2023-01-23T16:52:34.213Z,42.53
2023-01-23T16:55:21.819Z,37.35
2023-01-23T16:58:03.926Z,53.10
2023-01-23T17:00:45.171Z,24.27
2023-01-23T17:03:22.911Z,25.58
2023-01-23T17:05:53.541Z,30.58
2023-01-23T17:08:31.456Z,45.42
2023-01-23T17:11:06.353Z,41.42
2023-01-23T17:13:45.920Z,31.67
2023-01-23T17:16:26.562Z,24.35
2023-01-23T17:19:01.129Z,37.42
2023-01-23T17:21:35.099Z,37.92
2023-01-23T17:24:04.842Z,25.08
2023-01-23T17:26:31.955Z,28.20
2023-01-23T17:28:59.316Z,30.98
2023-01-23T17:31:32.765Z,25.08
2023-01-23T17:34:03.659Z,38.72
2023-01-23T17:36:31.827Z,24.83
2023-01-23T17:38:59.595Z,41.08
2023-01-23T17:41:41.586Z,22.20
2023-01-23T17:44:08.729Z,28.58
2023-01-23T17:46:39.484Z,21.98
2023-01-23T17:49:28.662Z,30.00
2023-01-23T17:51:56.913Z,36.20
2023-01-23T17:54:23.647Z,30.48
2023-01-23T17:56:53.726Z,35.72
2023-01-23T17:59:24.634Z,30.58
2023-01-23T18:01:54.415Z,32.90
2023-01-23T18:04:22.558Z,33.97
2023-01-23T18:06:55.773Z,41.83
2023-01-23T18:09:36.261Z,37.00
2023-01-23T18:12:05.180Z,28.25
2023-01-23T18:14:52.068Z,34.60
2023-01-23T18:17:34.479Z,37.00
2023-01-23T18:20:06.098Z,33.03
2023-01-23T18:22:38.416Z,26.40
2023-01-23T18:25:05.842Z,40.28
2023-01-23T18:27:38.852Z,46.88
2023-01-23T18:30:21.373Z,33.97
2023-01-23T18:33:27.553Z,35.05
2023-01-23T18:36:06.646Z,41.10
2023-01-23T18:38:54.945Z,43.20
2023-01-23T18:41:25.987Z,40.40
2023-01-23T18:44:17.723Z,26.73
2023-01-23T18:46:44.753Z,35.05
2023-01-23T18:49:24.543Z,40.42
2023-01-23T18:52:18.128Z,25.35
2023-01-23T18:55:11.394Z,41.03
2023-01-23T18:57:52.256Z,42.95
2023-01-23T19:00:30.864Z,41.28
2023-01-23T19:03:10.180Z,28.38
2023-01-23T19:05:37.061Z,22.70
2023-01-23T19:08:03.994Z,39.60
2023-01-23T19:10:47.513Z,26.60
2023-01-23T19:13:30.034Z,25.05
2023-01-23T19:16:11.951Z,37.72
2023-01-23T19:18:49.327Z,41.90
2023-01-23T19:21:20.154Z,28.75
2023-01-23T19:23:56.958Z,44.42
2023-01-23T19:26:29.916Z,39.10
2023-01-23T19:28:59.695Z,42.97
2023-01-23T19:31:39.591Z,33.55
2023-01-23T19:34:07.858Z,39.80
2023-01-23T19:36:48.206Z,53.75
2023-01-23T19:39:16.208Z,47.38
2023-01-23T19:41:48.876Z,44.45
2023-01-23T19:44:33.221Z,48.35
2023-01-23T19:47:11.841Z,33.70
2023-01-23T19:49:38.584Z,43.25
2023-01-23T19:52:05.680Z,36.95
2023-01-23T19:54:32.695Z,32.83
2023-01-23T19:56:59.785Z,35.20
2023-01-23T19:59:27.237Z,51.22
2023-01-23T20:01:54.072Z,46.33
2023-01-23T20:04:22.888Z,47.65
2023-01-23T20:06:51.750Z,62.28
2023-01-23T20:09:19.045Z,24.40
2023-01-23T20:11:46.374Z,27.52
2023-01-23T20:14:13.434Z,42.22
2023-01-23T20:16:42.827Z,54.78
2023-01-23T20:19:14.153Z,43.80
2023-01-23T20:21:40.858Z,39.50
2023-01-23T20:24:08.420Z,41.50
2023-01-23T20:26:35.753Z,55.50
2023-01-23T20:29:03.856Z,58.17
2023-01-23T20:31:31.205Z,45.72
2023-01-23T20:33:58.194Z,37.33
2023-01-23T20:36:24.928Z,54.90
2023-01-23T20:38:51.597Z,51.25
2023-01-23T20:41:19.856Z,35.78
2023-01-23T20:43:46.998Z,37.28
2023-01-23T20:46:15.171Z,35.42
2023-01-23T20:48:46.975Z,30.85
2023-01-23T20:51:16.391Z,49.50
2023-01-23T20:53:43.646Z,39.47
2023-01-23T20:56:15.843Z,36.83
2023-01-23T20:59:06.649Z,39.80
2023-01-23T21:01:54.552Z,39.40
2023-01-23T21:04:22.751Z,42.70
2023-01-23T21:06:49.534Z,49.95
2023-01-23T21:09:16.720Z,46.22
2023-01-23T21:11:43.689Z,42.92
2023-01-23T21:14:10.697Z,46.50
2023-01-23T21:16:37.950Z,43.13
2023-01-23T21:19:05.106Z,53.08
2023-01-23T21:21:32.176Z,41.10
2023-01-23T21:23:58.997Z,49.22
2023-01-23T21:26:27.747Z,55.92
2023-01-23T21:28:56.228Z,36.97
2023-01-23T21:31:25.854Z,56.38
2023-01-23T21:33:53.029Z,47.22
2023-01-23T21:36:21.945Z,45.58
2023-01-23T21:38:51.278Z,34.83
2023-01-23T21:41:18.305Z,49.00
2023-01-23T21:43:45.113Z,59.88
2023-01-23T21:46:11.916Z,46.50
2023-01-23T21:48:38.944Z,52.22
2023-01-23T21:51:16.980Z,46.92
2023-01-23T21:53:45.766Z,46.83
2023-01-23T21:56:14.178Z,50.67
2023-01-23T21:58:42.352Z,40.95
2023-01-23T22:01:33.885Z,47.13
2023-01-23T22:04:06.803Z,45.33
2023-01-23T22:06:34.647Z,54.47
2023-01-23T22:09:01.771Z,54.60
2023-01-23T22:11:28.794Z,39.15
2023-01-23T22:13:55.661Z,52.40
2023-01-23T22:16:31.855Z,50.58
2023-01-23T22:19:02.718Z,53.58
2023-01-23T22:21:29.427Z,46.80
2023-01-23T22:23:56.188Z,42.25
2023-01-23T22:26:23.843Z,66.40
2023-01-23T22:28:50.974Z,43.97
2023-01-23T22:31:18.165Z,34.80
2023-01-23T22:33:48.201Z,40.90
2023-01-23T22:36:17.465Z,48.60
2023-01-23T22:38:44.770Z,46.03
2023-01-23T22:41:14.705Z,46.47
2023-01-23T22:43:41.523Z,37.90
2023-01-23T22:46:17.391Z,25.00
2023-01-23T22:48:44.058Z,29.83
2023-01-23T22:51:19.692Z,44.58
2023-01-23T22:53:46.436Z,35.20
2023-01-23T22:56:13.723Z,41.72
2023-01-23T22:58:44.015Z,41.65
2023-01-23T23:01:12.007Z,53.63
2023-01-23T23:03:38.880Z,43.80
2023-01-23T23:06:08.128Z,39.83
2023-01-23T23:08:35.452Z,29.33
2023-01-23T23:11:08.624Z,38.95
2023-01-23T23:13:37.422Z,37.45
2023-01-23T23:16:10.989Z,40.47
2023-01-23T23:18:39.297Z,34.75
2023-01-23T23:21:09.577Z,49.28
2023-01-23T23:23:36.922Z,43.83
2023-01-23T23:26:05.026Z,34.03
2023-01-23T23:28:32.270Z,38.65
2023-01-23T23:30:59.048Z,35.10
2023-01-23T23:33:26.064Z,43.88
2023-01-23T23:35:53.073Z,43.38
2023-01-23T23:38:20.323Z,43.63
2023-01-23T23:41:08.420Z,44.83
2023-01-23T23:43:35.398Z,38.65
2023-01-23T23:46:04.706Z,38.72
2023-01-23T23:48:32.941Z,33.95
2023-01-23T23:51:00.740Z,37.70
2023-01-23T23:53:28.059Z,33.33
2023-01-23T23:55:54.771Z,33.25
2023-01-23T23:58:23.756Z,37.47
